sensor_id;sensor_type;location;lat;lon;timestamp;P1;durP1;ratioP1;P2;durP2;ratioP2
22922;SDS011;11627;51.322;22.816;2023-08-07T00:00:05;3.60;;;0.38;;
22922;SDS011;11627;51.322;22.816;2023-08-07T00:02:34;0.45;;;0.30;;
22922;SDS011;11627;51.322;22.816;2023-08-07T00:05:00;1.20;;;0.30;;
22922;SDS011;11627;51.322;22.816;2023-08-07T00:07:26;2.40;;;0.50;;
22922;SDS011;11627;51.322;22.816;2023-08-07T00:09:52;0.28;;;0.22;;
22922;SDS011;11627;51.322;22.816;2023-08-07T00:12:18;0.93;;;0.40;;
22922;SDS011;11627;51.322;22.816;2023-08-07T00:14:46;1.58;;;0.43;;
22922;SDS011;11627;51.322;22.816;2023-08-07T00:17:16;0.50;;;0.32;;
22922;SDS011;11627;51.322;22.816;2023-08-07T00:19:42;0.30;;;0.30;;
22922;SDS011;11627;51.322;22.816;2023-08-07T00:22:07;1.27;;;0.40;;
22922;SDS011;11627;51.322;22.816;2023-08-07T00:24:33;0.35;;;0.30;;
22922;SDS011;11627;51.322;22.816;2023-08-07T00:27:00;1.60;;;0.40;;
22922;SDS011;11627;51.322;22.816;2023-08-07T00:29:26;1.20;;;0.30;;
22922;SDS011;11627;51.322;22.816;2023-08-07T00:31:52;0.35;;;0.30;;
22922;SDS011;11627;51.322;22.816;2023-08-07T00:34:18;0.60;;;0.40;;
22922;SDS011;11627;51.322;22.816;2023-08-07T00:36:43;0.93;;;0.45;;
22922;SDS011;11627;51.322;22.816;2023-08-07T00:39:10;0.70;;;0.55;;
22922;SDS011;11627;51.322;22.816;2023-08-07T00:41:35;1.40;;;0.50;;
22922;SDS011;11627;51.322;22.816;2023-08-07T00:44:01;0.75;;;0.50;;
22922;SDS011;11627;51.322;22.816;2023-08-07T00:46:27;4.05;;;0.60;;
22922;SDS011;11627;51.322;22.816;2023-08-07T00:48:54;0.40;;;0.40;;
22922;SDS011;11627;51.322;22.816;2023-08-07T00:51:21;1.95;;;0.50;;
22922;SDS011;11627;51.322;22.816;2023-08-07T00:53:48;2.50;;;0.60;;
22922;SDS011;11627;51.322;22.816;2023-08-07T00:56:15;4.70;;;0.50;;
22922;SDS011;11627;51.322;22.816;2023-08-07T00:58:41;1.52;;;0.40;;
22922;SDS011;11627;51.322;22.816;2023-08-07T01:01:07;3.50;;;0.50;;
22922;SDS011;11627;51.322;22.816;2023-08-07T01:03:33;1.27;;;0.70;;
22922;SDS011;11627;51.322;22.816;2023-08-07T01:05:59;0.77;;;0.30;;
22922;SDS011;11627;51.322;22.816;2023-08-07T01:08:26;1.30;;;0.30;;
22922;SDS011;11627;51.322;22.816;2023-08-07T01:11:06;1.20;;;0.20;;
22922;SDS011;11627;51.322;22.816;2023-08-07T01:17:06;5.22;;;0.25;;
22922;SDS011;11627;51.322;22.816;2023-08-07T01:19:36;0.52;;;0.20;;
22922;SDS011;11627;51.322;22.816;2023-08-07T01:22:09;0.43;;;0.22;;
22922;SDS011;11627;51.322;22.816;2023-08-07T01:24:37;1.60;;;0.40;;
22922;SDS011;11627;51.322;22.816;2023-08-07T01:29:49;1.17;;;0.20;;
22922;SDS011;11627;51.322;22.816;2023-08-07T01:32:23;1.77;;;0.45;;
22922;SDS011;11627;51.322;22.816;2023-08-07T01:35:00;0.40;;;0.25;;
22922;SDS011;11627;51.322;22.816;2023-08-07T01:37:29;2.65;;;0.30;;
22922;SDS011;11627;51.322;22.816;2023-08-07T01:40:00;3.30;;;0.30;;
22922;SDS011;11627;51.322;22.816;2023-08-07T01:42:29;0.32;;;0.30;;
22922;SDS011;11627;51.322;22.816;2023-08-07T01:44:55;0.63;;;0.30;;
22922;SDS011;11627;51.322;22.816;2023-08-07T01:47:20;1.95;;;0.40;;
22922;SDS011;11627;51.322;22.816;2023-08-07T01:49:46;1.02;;;0.40;;
22922;SDS011;11627;51.322;22.816;2023-08-07T01:52:12;0.75;;;0.43;;
22922;SDS011;11627;51.322;22.816;2023-08-07T01:54:38;1.33;;;0.47;;
22922;SDS011;11627;51.322;22.816;2023-08-07T01:57:04;0.45;;;0.40;;
22922;SDS011;11627;51.322;22.816;2023-08-07T01:59:30;0.65;;;0.30;;
22922;SDS011;11627;51.322;22.816;2023-08-07T02:01:56;0.52;;;0.50;;
22922;SDS011;11627;51.322;22.816;2023-08-07T02:04:21;4.22;;;0.50;;
22922;SDS011;11627;51.322;22.816;2023-08-07T02:06:47;2.60;;;0.55;;
22922;SDS011;11627;51.322;22.816;2023-08-07T02:09:13;0.40;;;0.40;;
22922;SDS011;11627;51.322;22.816;2023-08-07T02:11:39;1.35;;;0.55;;
22922;SDS011;11627;51.322;22.816;2023-08-07T02:14:05;0.40;;;0.40;;
22922;SDS011;11627;51.322;22.816;2023-08-07T02:16:31;0.68;;;0.50;;
22922;SDS011;11627;51.322;22.816;2023-08-07T02:18:56;1.55;;;0.50;;
22922;SDS011;11627;51.322;22.816;2023-08-07T02:21:22;2.65;;;0.40;;
22922;SDS011;11627;51.322;22.816;2023-08-07T02:23:48;1.42;;;0.47;;
22922;SDS011;11627;51.322;22.816;2023-08-07T02:26:14;2.95;;;0.52;;
22922;SDS011;11627;51.322;22.816;2023-08-07T02:28:40;3.55;;;0.60;;
22922;SDS011;11627;51.322;22.816;2023-08-07T02:31:05;4.53;;;0.50;;
22922;SDS011;11627;51.322;22.816;2023-08-07T02:33:31;0.95;;;0.50;;
22922;SDS011;11627;51.322;22.816;2023-08-07T02:35:57;4.43;;;0.50;;
22922;SDS011;11627;51.322;22.816;2023-08-07T02:38:24;2.92;;;0.50;;
22922;SDS011;11627;51.322;22.816;2023-08-07T02:40:51;4.20;;;0.68;;
22922;SDS011;11627;51.322;22.816;2023-08-07T02:43:16;5.40;;;0.40;;
22922;SDS011;11627;51.322;22.816;2023-08-07T02:45:42;1.27;;;0.45;;
22922;SDS011;11627;51.322;22.816;2023-08-07T02:48:08;0.73;;;0.40;;
22922;SDS011;11627;51.322;22.816;2023-08-07T02:50:35;0.82;;;0.40;;
22922;SDS011;11627;51.322;22.816;2023-08-07T02:53:01;3.30;;;1.17;;
22922;SDS011;11627;51.322;22.816;2023-08-07T02:55:27;2.65;;;0.55;;
22922;SDS011;11627;51.322;22.816;2023-08-07T02:57:53;2.47;;;0.40;;
22922;SDS011;11627;51.322;22.816;2023-08-07T03:00:19;2.75;;;0.40;;
22922;SDS011;11627;51.322;22.816;2023-08-07T03:02:45;0.50;;;0.40;;
22922;SDS011;11627;51.322;22.816;2023-08-07T03:05:11;2.75;;;0.47;;
22922;SDS011;11627;51.322;22.816;2023-08-07T03:07:36;0.40;;;0.40;;
22922;SDS011;11627;51.322;22.816;2023-08-07T03:10:02;1.23;;;0.60;;
22922;SDS011;11627;51.322;22.816;2023-08-07T03:12:29;3.13;;;0.65;;
22922;SDS011;11627;51.322;22.816;2023-08-07T03:14:55;0.88;;;0.60;;
22922;SDS011;11627;51.322;22.816;2023-08-07T03:17:21;1.85;;;0.50;;
22922;SDS011;11627;51.322;22.816;2023-08-07T03:19:46;0.40;;;0.40;;
22922;SDS011;11627;51.322;22.816;2023-08-07T03:22:14;0.65;;;0.50;;
22922;SDS011;11627;51.322;22.816;2023-08-07T03:24:40;0.50;;;0.50;;
22922;SDS011;11627;51.322;22.816;2023-08-07T03:27:05;0.60;;;0.60;;
22922;SDS011;11627;51.322;22.816;2023-08-07T03:29:31;3.42;;;0.73;;
22922;SDS011;11627;51.322;22.816;2023-08-07T03:31:57;2.72;;;0.75;;
22922;SDS011;11627;51.322;22.816;2023-08-07T03:34:23;0.85;;;0.60;;
22922;SDS011;11627;51.322;22.816;2023-08-07T03:36:49;2.05;;;0.60;;
22922;SDS011;11627;51.322;22.816;2023-08-07T03:39:14;1.05;;;0.60;;
22922;SDS011;11627;51.322;22.816;2023-08-07T03:41:40;0.63;;;0.50;;
22922;SDS011;11627;51.322;22.816;2023-08-07T03:44:06;0.60;;;0.60;;
22922;SDS011;11627;51.322;22.816;2023-08-07T03:46:32;0.90;;;0.57;;
22922;SDS011;11627;51.322;22.816;2023-08-07T03:48:58;2.38;;;0.60;;
22922;SDS011;11627;51.322;22.816;2023-08-07T03:51:24;2.80;;;0.80;;
22922;SDS011;11627;51.322;22.816;2023-08-07T03:53:49;4.85;;;0.70;;
22922;SDS011;11627;51.322;22.816;2023-08-07T03:56:15;1.10;;;0.70;;
22922;SDS011;11627;51.322;22.816;2023-08-07T03:58:41;4.70;;;0.73;;
22922;SDS011;11627;51.322;22.816;2023-08-07T04:01:07;2.50;;;0.70;;
22922;SDS011;11627;51.322;22.816;2023-08-07T04:03:33;0.68;;;0.60;;
22922;SDS011;11627;51.322;22.816;2023-08-07T04:05:59;2.55;;;0.80;;
22922;SDS011;11627;51.322;22.816;2023-08-07T04:08:26;0.80;;;0.80;;
22922;SDS011;11627;51.322;22.816;2023-08-07T04:10:59;0.50;;;0.50;;
22922;SDS011;11627;51.322;22.816;2023-08-07T04:13:29;1.20;;;0.70;;
22922;SDS011;11627;51.322;22.816;2023-08-07T04:15:55;0.60;;;0.60;;
22922;SDS011;11627;51.322;22.816;2023-08-07T04:18:22;1.48;;;0.95;;
22922;SDS011;11627;51.322;22.816;2023-08-07T04:20:49;0.40;;;0.40;;
22922;SDS011;11627;51.322;22.816;2023-08-07T04:23:17;3.13;;;0.60;;
22922;SDS011;11627;51.322;22.816;2023-08-07T04:25:43;0.50;;;0.50;;
22922;SDS011;11627;51.322;22.816;2023-08-07T04:28:10;1.38;;;0.68;;
22922;SDS011;11627;51.322;22.816;2023-08-07T04:30:36;0.77;;;0.77;;
22922;SDS011;11627;51.322;22.816;2023-08-07T04:33:01;2.42;;;0.52;;
22922;SDS011;11627;51.322;22.816;2023-08-07T04:35:27;2.03;;;0.70;;
22922;SDS011;11627;51.322;22.816;2023-08-07T04:37:53;0.70;;;0.70;;
22922;SDS011;11627;51.322;22.816;2023-08-07T04:40:19;0.88;;;0.55;;
22922;SDS011;11627;51.322;22.816;2023-08-07T04:42:45;0.75;;;0.75;;
22922;SDS011;11627;51.322;22.816;2023-08-07T04:45:11;1.35;;;0.73;;
22922;SDS011;11627;51.322;22.816;2023-08-07T04:47:37;0.60;;;0.60;;
22922;SDS011;11627;51.322;22.816;2023-08-07T04:50:02;0.80;;;0.60;;
22922;SDS011;11627;51.322;22.816;2023-08-07T04:52:29;3.58;;;0.75;;
22922;SDS011;11627;51.322;22.816;2023-08-07T04:54:54;1.95;;;0.70;;
22922;SDS011;11627;51.322;22.816;2023-08-07T04:57:20;2.00;;;0.80;;
22922;SDS011;11627;51.322;22.816;2023-08-07T04:59:46;3.78;;;1.08;;
22922;SDS011;11627;51.322;22.816;2023-08-07T05:02:12;0.93;;;0.88;;
22922;SDS011;11627;51.322;22.816;2023-08-07T05:04:38;4.30;;;0.60;;
22922;SDS011;11627;51.322;22.816;2023-08-07T05:07:04;1.83;;;0.80;;
22922;SDS011;11627;51.322;22.816;2023-08-07T05:09:30;2.25;;;0.63;;
22922;SDS011;11627;51.322;22.816;2023-08-07T05:11:56;1.65;;;0.80;;
22922;SDS011;11627;51.322;22.816;2023-08-07T05:14:21;1.20;;;0.93;;
22922;SDS011;11627;51.322;22.816;2023-08-07T05:16:47;2.70;;;1.20;;
22922;SDS011;11627;51.322;22.816;2023-08-07T05:19:13;2.22;;;1.50;;
22922;SDS011;11627;51.322;22.816;2023-08-07T05:21:39;1.13;;;1.00;;
22922;SDS011;11627;51.322;22.816;2023-08-07T05:24:05;0.98;;;0.95;;
22922;SDS011;11627;51.322;22.816;2023-08-07T05:26:31;1.45;;;1.30;;
22922;SDS011;11627;51.322;22.816;2023-08-07T05:28:56;3.17;;;1.27;;
22922;SDS011;11627;51.322;22.816;2023-08-07T05:31:24;4.90;;;1.10;;
22922;SDS011;11627;51.322;22.816;2023-08-07T05:33:50;1.20;;;1.10;;
22922;SDS011;11627;51.322;22.816;2023-08-07T05:36:16;0.93;;;0.90;;
22922;SDS011;11627;51.322;22.816;2023-08-07T05:38:42;1.92;;;1.00;;
22922;SDS011;11627;51.322;22.816;2023-08-07T05:41:10;1.17;;;1.08;;
22922;SDS011;11627;51.322;22.816;2023-08-07T05:43:36;3.97;;;0.90;;
22922;SDS011;11627;51.322;22.816;2023-08-07T05:46:02;0.85;;;0.85;;
22922;SDS011;11627;51.322;22.816;2023-08-07T05:48:28;0.77;;;0.73;;
22922;SDS011;11627;51.322;22.816;2023-08-07T05:50:54;0.68;;;0.68;;
22922;SDS011;11627;51.322;22.816;2023-08-07T05:53:19;1.10;;;0.85;;
22922;SDS011;11627;51.322;22.816;2023-08-07T05:55:45;2.45;;;0.98;;
22922;SDS011;11627;51.322;22.816;2023-08-07T05:58:11;2.88;;;1.10;;
22922;SDS011;11627;51.322;22.816;2023-08-07T06:00:37;0.90;;;0.90;;
22922;SDS011;11627;51.322;22.816;2023-08-07T06:03:03;4.88;;;1.08;;
22922;SDS011;11627;51.322;22.816;2023-08-07T06:05:29;1.05;;;0.93;;
22922;SDS011;11627;51.322;22.816;2023-08-07T06:07:55;1.17;;;1.05;;
22922;SDS011;11627;51.322;22.816;2023-08-07T06:10:21;0.82;;;0.82;;
22922;SDS011;11627;51.322;22.816;2023-08-07T06:12:47;1.25;;;0.90;;
22922;SDS011;11627;51.322;22.816;2023-08-07T06:15:12;0.90;;;0.90;;
22922;SDS011;11627;51.322;22.816;2023-08-07T06:17:38;1.05;;;1.00;;
22922;SDS011;11627;51.322;22.816;2023-08-07T06:20:05;1.35;;;1.00;;
22922;SDS011;11627;51.322;22.816;2023-08-07T06:22:34;3.55;;;1.10;;
22922;SDS011;11627;51.322;22.816;2023-08-07T06:25:00;0.80;;;0.80;;
22922;SDS011;11627;51.322;22.816;2023-08-07T06:27:26;1.48;;;0.65;;
22922;SDS011;11627;51.322;22.816;2023-08-07T06:29:52;2.10;;;1.38;;
22922;SDS011;11627;51.322;22.816;2023-08-07T06:32:18;1.02;;;0.93;;
22922;SDS011;11627;51.322;22.816;2023-08-07T06:34:44;5.95;;;1.05;;
22922;SDS011;11627;51.322;22.816;2023-08-07T06:37:11;1.33;;;1.10;;
22922;SDS011;11627;51.322;22.816;2023-08-07T06:39:37;3.63;;;0.98;;
22922;SDS011;11627;51.322;22.816;2023-08-07T06:42:03;2.03;;;1.00;;
22922;SDS011;11627;51.322;22.816;2023-08-07T06:44:29;1.95;;;1.20;;
22922;SDS011;11627;51.322;22.816;2023-08-07T06:46:55;1.80;;;1.17;;
22922;SDS011;11627;51.322;22.816;2023-08-07T06:49:21;2.15;;;1.20;;
22922;SDS011;11627;51.322;22.816;2023-08-07T06:51:47;2.67;;;1.13;;
22922;SDS011;11627;51.322;22.816;2023-08-07T06:54:13;2.10;;;1.50;;
22922;SDS011;11627;51.322;22.816;2023-08-07T06:56:39;2.15;;;1.55;;
22922;SDS011;11627;51.322;22.816;2023-08-07T06:59:07;2.22;;;0.93;;
22922;SDS011;11627;51.322;22.816;2023-08-07T07:01:33;1.40;;;1.30;;
22922;SDS011;11627;51.322;22.816;2023-08-07T07:03:59;1.50;;;1.20;;
22922;SDS011;11627;51.322;22.816;2023-08-07T07:06:24;3.53;;;1.50;;
22922;SDS011;11627;51.322;22.816;2023-08-07T07:08:53;1.35;;;1.20;;
22922;SDS011;11627;51.322;22.816;2023-08-07T07:11:19;2.58;;;1.30;;
22922;SDS011;11627;51.322;22.816;2023-08-07T07:13:47;1.63;;;1.38;;
22922;SDS011;11627;51.322;22.816;2023-08-07T07:16:14;1.75;;;1.30;;
22922;SDS011;11627;51.322;22.816;2023-08-07T07:18:40;1.40;;;1.30;;
22922;SDS011;11627;51.322;22.816;2023-08-07T07:21:06;2.58;;;1.15;;
22922;SDS011;11627;51.322;22.816;2023-08-07T07:23:31;2.33;;;1.17;;
22922;SDS011;11627;51.322;22.816;2023-08-07T07:25:57;1.65;;;1.45;;
22922;SDS011;11627;51.322;22.816;2023-08-07T07:28:23;2.45;;;1.20;;
22922;SDS011;11627;51.322;22.816;2023-08-07T07:30:49;1.80;;;1.23;;
22922;SDS011;11627;51.322;22.816;2023-08-07T07:33:16;3.83;;;1.10;;
22922;SDS011;11627;51.322;22.816;2023-08-07T07:35:42;2.70;;;1.20;;
22922;SDS011;11627;51.322;22.816;2023-08-07T07:38:08;2.03;;;1.27;;
22922;SDS011;11627;51.322;22.816;2023-08-07T07:40:35;1.27;;;1.17;;
22922;SDS011;11627;51.322;22.816;2023-08-07T07:43:02;2.03;;;1.27;;
22922;SDS011;11627;51.322;22.816;2023-08-07T07:45:28;1.80;;;1.35;;
22922;SDS011;11627;51.322;22.816;2023-08-07T07:47:55;3.53;;;1.42;;
22922;SDS011;11627;51.322;22.816;2023-08-07T07:50:21;1.83;;;1.20;;
22922;SDS011;11627;51.322;22.816;2023-08-07T07:52:47;1.60;;;1.40;;
22922;SDS011;11627;51.322;22.816;2023-08-07T07:55:13;2.33;;;1.40;;
22922;SDS011;11627;51.322;22.816;2023-08-07T07:57:39;1.42;;;1.20;;
22922;SDS011;11627;51.322;22.816;2023-08-07T08:00:06;1.20;;;1.10;;
22922;SDS011;11627;51.322;22.816;2023-08-07T08:02:35;1.60;;;1.23;;
22922;SDS011;11627;51.322;22.816;2023-08-07T08:05:02;3.45;;;1.30;;
22922;SDS011;11627;51.322;22.816;2023-08-07T08:07:28;4.05;;;1.35;;
22922;SDS011;11627;51.322;22.816;2023-08-07T08:09:54;1.33;;;1.20;;
22922;SDS011;11627;51.322;22.816;2023-08-07T08:12:21;1.80;;;1.10;;
22922;SDS011;11627;51.322;22.816;2023-08-07T08:14:47;2.88;;;1.23;;
22922;SDS011;11627;51.322;22.816;2023-08-07T08:17:13;1.13;;;1.02;;
22922;SDS011;11627;51.322;22.816;2023-08-07T08:19:39;1.73;;;1.13;;
22922;SDS011;11627;51.322;22.816;2023-08-07T08:22:05;2.80;;;1.20;;
22922;SDS011;11627;51.322;22.816;2023-08-07T08:24:31;1.80;;;1.30;;
22922;SDS011;11627;51.322;22.816;2023-08-07T08:26:58;2.72;;;1.40;;
22922;SDS011;11627;51.322;22.816;2023-08-07T08:29:24;5.18;;;1.30;;
22922;SDS011;11627;51.322;22.816;2023-08-07T08:31:51;1.20;;;1.10;;
22922;SDS011;11627;51.322;22.816;2023-08-07T08:34:19;1.15;;;1.05;;
22922;SDS011;11627;51.322;22.816;2023-08-07T08:36:46;2.20;;;1.40;;
22922;SDS011;11627;51.322;22.816;2023-08-07T08:39:13;1.70;;;1.30;;
22922;SDS011;11627;51.322;22.816;2023-08-07T08:41:39;1.98;;;1.10;;
22922;SDS011;11627;51.322;22.816;2023-08-07T08:44:07;1.73;;;1.20;;
22922;SDS011;11627;51.322;22.816;2023-08-07T08:46:37;3.17;;;1.33;;
22922;SDS011;11627;51.322;22.816;2023-08-07T08:49:07;1.40;;;1.30;;
22922;SDS011;11627;51.322;22.816;2023-08-07T08:51:36;4.20;;;1.20;;
22922;SDS011;11627;51.322;22.816;2023-08-07T08:54:03;1.45;;;1.10;;
22922;SDS011;11627;51.322;22.816;2023-08-07T08:56:29;3.05;;;1.50;;
22922;SDS011;11627;51.322;22.816;2023-08-07T08:58:56;4.00;;;1.30;;
22922;SDS011;11627;51.322;22.816;2023-08-07T09:01:22;0.88;;;0.88;;
22922;SDS011;11627;51.322;22.816;2023-08-07T09:03:49;2.53;;;1.38;;
22922;SDS011;11627;51.322;22.816;2023-08-07T09:06:17;5.45;;;2.00;;
22922;SDS011;11627;51.322;22.816;2023-08-07T09:08:44;3.08;;;1.15;;
22922;SDS011;11627;51.322;22.816;2023-08-07T09:11:10;1.77;;;1.10;;
22922;SDS011;11627;51.322;22.816;2023-08-07T09:13:39;1.70;;;1.27;;
22922;SDS011;11627;51.322;22.816;2023-08-07T09:16:07;2.00;;;1.20;;
22922;SDS011;11627;51.322;22.816;2023-08-07T09:18:34;1.90;;;1.10;;
22922;SDS011;11627;51.322;22.816;2023-08-07T09:21:00;1.33;;;1.00;;
22922;SDS011;11627;51.322;22.816;2023-08-07T09:23:26;1.67;;;1.20;;
22922;SDS011;11627;51.322;22.816;2023-08-07T09:26:02;1.38;;;1.10;;
22922;SDS011;11627;51.322;22.816;2023-08-07T09:28:29;1.55;;;1.00;;
22922;SDS011;11627;51.322;22.816;2023-08-07T09:30:57;2.42;;;1.27;;
22922;SDS011;11627;51.322;22.816;2023-08-07T09:33:28;3.88;;;1.60;;
22922;SDS011;11627;51.322;22.816;2023-08-07T09:35:58;2.25;;;1.45;;
22922;SDS011;11627;51.322;22.816;2023-08-07T09:38:32;2.95;;;1.33;;
22922;SDS011;11627;51.322;22.816;2023-08-07T09:41:01;1.55;;;1.13;;
22922;SDS011;11627;51.322;22.816;2023-08-07T09:43:34;3.70;;;1.10;;
22922;SDS011;11627;51.322;22.816;2023-08-07T09:46:05;4.43;;;1.10;;
22922;SDS011;11627;51.322;22.816;2023-08-07T09:48:32;2.92;;;1.20;;
22922;SDS011;11627;51.322;22.816;2023-08-07T09:51:06;2.58;;;1.35;;
22922;SDS011;11627;51.322;22.816;2023-08-07T09:53:32;1.95;;;1.63;;
22922;SDS011;11627;51.322;22.816;2023-08-07T09:55:58;1.45;;;1.35;;
22922;SDS011;11627;51.322;22.816;2023-08-07T09:58:24;5.35;;;1.38;;
22922;SDS011;11627;51.322;22.816;2023-08-07T10:00:51;3.20;;;1.02;;
22922;SDS011;11627;51.322;22.816;2023-08-07T10:03:24;2.80;;;1.00;;
22922;SDS011;11627;51.322;22.816;2023-08-07T10:05:51;1.77;;;1.30;;
22922;SDS011;11627;51.322;22.816;2023-08-07T10:08:17;2.70;;;1.17;;
22922;SDS011;11627;51.322;22.816;2023-08-07T10:10:43;2.47;;;1.20;;
22922;SDS011;11627;51.322;22.816;2023-08-07T10:13:14;1.27;;;1.17;;
22922;SDS011;11627;51.322;22.816;2023-08-07T10:15:40;1.10;;;1.00;;
22922;SDS011;11627;51.322;22.816;2023-08-07T10:18:11;2.50;;;1.20;;
22922;SDS011;11627;51.322;22.816;2023-08-07T10:20:37;1.20;;;0.98;;
22922;SDS011;11627;51.322;22.816;2023-08-07T10:23:07;2.17;;;0.88;;
22922;SDS011;11627;51.322;22.816;2023-08-07T10:25:35;2.42;;;1.00;;
22922;SDS011;11627;51.322;22.816;2023-08-07T10:28:06;2.67;;;1.20;;
22922;SDS011;11627;51.322;22.816;2023-08-07T10:30:37;1.10;;;0.90;;
22922;SDS011;11627;51.322;22.816;2023-08-07T10:33:05;1.50;;;0.80;;
22922;SDS011;11627;51.322;22.816;2023-08-07T10:35:33;2.45;;;1.10;;
22922;SDS011;11627;51.322;22.816;2023-08-07T10:38:06;3.25;;;1.13;;
22922;SDS011;11627;51.322;22.816;2023-08-07T10:40:34;1.52;;;1.00;;
22922;SDS011;11627;51.322;22.816;2023-08-07T10:43:29;2.22;;;1.27;;
22922;SDS011;11627;51.322;22.816;2023-08-07T10:46:02;1.10;;;1.00;;
22922;SDS011;11627;51.322;22.816;2023-08-07T10:48:39;1.60;;;0.93;;
22922;SDS011;11627;51.322;22.816;2023-08-07T10:51:21;1.23;;;0.80;;
22922;SDS011;11627;51.322;22.816;2023-08-07T10:53:57;2.28;;;0.90;;
22922;SDS011;11627;51.322;22.816;2023-08-07T10:56:30;2.03;;;0.90;;
22922;SDS011;11627;51.322;22.816;2023-08-07T10:59:08;1.48;;;1.08;;
22922;SDS011;11627;51.322;22.816;2023-08-07T11:01:40;4.75;;;0.90;;
22922;SDS011;11627;51.322;22.816;2023-08-07T11:04:09;1.05;;;1.00;;
22922;SDS011;11627;51.322;22.816;2023-08-07T11:06:40;1.15;;;1.00;;
22922;SDS011;11627;51.322;22.816;2023-08-07T11:09:08;1.35;;;0.90;;
22922;SDS011;11627;51.322;22.816;2023-08-07T11:11:56;1.48;;;0.90;;
22922;SDS011;11627;51.322;22.816;2023-08-07T11:14:21;2.17;;;1.10;;
22922;SDS011;11627;51.322;22.816;2023-08-07T11:16:47;5.25;;;1.00;;
22922;SDS011;11627;51.322;22.816;2023-08-07T11:19:16;0.98;;;0.90;;
22922;SDS011;11627;51.322;22.816;2023-08-07T11:21:44;1.75;;;1.13;;
22922;SDS011;11627;51.322;22.816;2023-08-07T11:24:12;1.30;;;0.95;;
22922;SDS011;11627;51.322;22.816;2023-08-07T11:26:38;1.60;;;1.00;;
22922;SDS011;11627;51.322;22.816;2023-08-07T11:29:04;0.98;;;0.90;;
22922;SDS011;11627;51.322;22.816;2023-08-07T11:31:32;2.40;;;1.13;;
22922;SDS011;11627;51.322;22.816;2023-08-07T11:33:57;4.78;;;1.00;;
22922;SDS011;11627;51.322;22.816;2023-08-07T11:36:25;2.40;;;1.00;;
22922;SDS011;11627;51.322;22.816;2023-08-07T11:38:50;1.17;;;0.80;;
22922;SDS011;11627;51.322;22.816;2023-08-07T11:41:17;1.05;;;0.98;;
22922;SDS011;11627;51.322;22.816;2023-08-07T11:43:44;2.85;;;1.10;;
22922;SDS011;11627;51.322;22.816;2023-08-07T11:46:11;1.75;;;1.05;;
22922;SDS011;11627;51.322;22.816;2023-08-07T11:48:42;1.20;;;1.10;;
22922;SDS011;11627;51.322;22.816;2023-08-07T11:51:09;0.63;;;0.63;;
22922;SDS011;11627;51.322;22.816;2023-08-07T11:53:35;1.25;;;0.90;;
22922;SDS011;11627;51.322;22.816;2023-08-07T11:56:04;1.40;;;0.80;;
22922;SDS011;11627;51.322;22.816;2023-08-07T11:58:38;1.73;;;0.90;;
22922;SDS011;11627;51.322;22.816;2023-08-07T12:01:16;2.38;;;0.90;;
22922;SDS011;11627;51.322;22.816;2023-08-07T12:06:33;1.08;;;0.95;;
22922;SDS011;11627;51.322;22.816;2023-08-07T12:09:00;1.35;;;0.93;;
22922;SDS011;11627;51.322;22.816;2023-08-07T12:11:28;1.48;;;1.05;;
22922;SDS011;11627;51.322;22.816;2023-08-07T12:13:55;3.35;;;0.93;;
22922;SDS011;11627;51.322;22.816;2023-08-07T12:16:21;2.63;;;0.93;;
22922;SDS011;11627;51.322;22.816;2023-08-07T12:18:48;3.55;;;1.00;;
22922;SDS011;11627;51.322;22.816;2023-08-07T12:21:17;1.40;;;0.80;;
22922;SDS011;11627;51.322;22.816;2023-08-07T12:23:45;2.47;;;0.98;;
22922;SDS011;11627;51.322;22.816;2023-08-07T12:26:13;2.90;;;0.90;;
22922;SDS011;11627;51.322;22.816;2023-08-07T12:28:39;2.45;;;0.80;;
22922;SDS011;11627;51.322;22.816;2023-08-07T12:31:07;2.70;;;1.00;;
22922;SDS011;11627;51.322;22.816;2023-08-07T12:33:33;0.68;;;0.68;;
22922;SDS011;11627;51.322;22.816;2023-08-07T12:36:00;2.38;;;0.80;;
22922;SDS011;11627;51.322;22.816;2023-08-07T12:38:26;1.75;;;0.90;;
22922;SDS011;11627;51.322;22.816;2023-08-07T12:40:53;1.27;;;0.88;;
22922;SDS011;11627;51.322;22.816;2023-08-07T12:43:19;2.85;;;0.90;;
22922;SDS011;11627;51.322;22.816;2023-08-07T12:45:45;1.73;;;0.77;;
22922;SDS011;11627;51.322;22.816;2023-08-07T12:48:11;3.00;;;0.90;;
22922;SDS011;11627;51.322;22.816;2023-08-07T12:50:38;0.90;;;0.90;;
22922;SDS011;11627;51.322;22.816;2023-08-07T12:53:05;1.17;;;0.90;;
22922;SDS011;11627;51.322;22.816;2023-08-07T12:55:33;0.90;;;0.75;;
22922;SDS011;11627;51.322;22.816;2023-08-07T12:57:59;0.90;;;0.90;;
22922;SDS011;11627;51.322;22.816;2023-08-07T13:00:25;3.17;;;1.05;;
22922;SDS011;11627;51.322;22.816;2023-08-07T13:02:51;0.73;;;0.73;;
22922;SDS011;11627;51.322;22.816;2023-08-07T13:05:20;1.88;;;1.00;;
22922;SDS011;11627;51.322;22.816;2023-08-07T13:07:47;3.25;;;0.80;;
22922;SDS011;11627;51.322;22.816;2023-08-07T13:10:14;2.55;;;0.90;;
22922;SDS011;11627;51.322;22.816;2023-08-07T13:12:42;0.98;;;0.85;;
22922;SDS011;11627;51.322;22.816;2023-08-07T13:15:11;0.77;;;0.77;;
22922;SDS011;11627;51.322;22.816;2023-08-07T13:17:39;3.70;;;1.10;;
22922;SDS011;11627;51.322;22.816;2023-08-07T13:20:05;3.25;;;1.15;;
22922;SDS011;11627;51.322;22.816;2023-08-07T13:22:35;2.83;;;1.00;;
22922;SDS011;11627;51.322;22.816;2023-08-07T13:25:03;1.15;;;0.90;;
22922;SDS011;11627;51.322;22.816;2023-08-07T13:27:30;1.60;;;0.90;;
22922;SDS011;11627;51.322;22.816;2023-08-07T13:29:57;2.22;;;1.13;;
22922;SDS011;11627;51.322;22.816;2023-08-07T13:32:22;1.15;;;0.90;;
22922;SDS011;11627;51.322;22.816;2023-08-07T13:34:52;1.13;;;0.90;;
22922;SDS011;11627;51.322;22.816;2023-08-07T13:37:18;1.20;;;1.10;;
22922;SDS011;11627;51.322;22.816;2023-08-07T13:39:44;1.70;;;1.00;;
22922;SDS011;11627;51.322;22.816;2023-08-07T13:42:13;1.60;;;1.10;;
22922;SDS011;11627;51.322;22.816;2023-08-07T13:44:39;1.08;;;0.95;;
22922;SDS011;11627;51.322;22.816;2023-08-07T13:47:05;2.95;;;1.00;;
22922;SDS011;11627;51.322;22.816;2023-08-07T13:49:31;4.30;;;1.20;;
22922;SDS011;11627;51.322;22.816;2023-08-07T13:51:58;1.60;;;1.38;;
22922;SDS011;11627;51.322;22.816;2023-08-07T13:54:23;1.33;;;1.23;;
22922;SDS011;11627;51.322;22.816;2023-08-07T13:56:49;1.27;;;1.17;;
22922;SDS011;11627;51.322;22.816;2023-08-07T13:59:15;1.95;;;1.20;;
22922;SDS011;11627;51.322;22.816;2023-08-07T14:01:42;2.45;;;1.30;;
22922;SDS011;11627;51.322;22.816;2023-08-07T14:04:08;2.50;;;1.30;;
22922;SDS011;11627;51.322;22.816;2023-08-07T14:06:34;1.85;;;1.23;;
22922;SDS011;11627;51.322;22.816;2023-08-07T14:08:59;1.25;;;1.10;;
22922;SDS011;11627;51.322;22.816;2023-08-07T14:11:26;2.08;;;1.30;;
22922;SDS011;11627;51.322;22.816;2023-08-07T14:13:56;3.65;;;1.40;;
22922;SDS011;11627;51.322;22.816;2023-08-07T14:16:22;2.33;;;1.35;;
22922;SDS011;11627;51.322;22.816;2023-08-07T14:18:50;1.33;;;1.25;;
22922;SDS011;11627;51.322;22.816;2023-08-07T14:21:15;1.35;;;0.93;;
22922;SDS011;11627;51.322;22.816;2023-08-07T14:23:41;2.13;;;1.15;;
22922;SDS011;11627;51.322;22.816;2023-08-07T14:26:10;1.35;;;1.20;;
22922;SDS011;11627;51.322;22.816;2023-08-07T14:28:38;1.50;;;1.17;;
22922;SDS011;11627;51.322;22.816;2023-08-07T14:31:08;1.92;;;1.02;;
22922;SDS011;11627;51.322;22.816;2023-08-07T14:33:34;3.13;;;1.10;;
22922;SDS011;11627;51.322;22.816;2023-08-07T14:36:01;2.63;;;1.00;;
22922;SDS011;11627;51.322;22.816;2023-08-07T14:38:27;1.77;;;1.25;;
22922;SDS011;11627;51.322;22.816;2023-08-07T14:40:54;1.23;;;1.13;;